Time;durP1;ratioP1;P1;durP2;ratioP2;P2;SDS_P1;SDS_P2;PMS_P1;PMS_P2;Temp;Humidity;BMP_temperature;BMP_pressure;BME280_temperature;BME280_humidity;BME280_pressure;Samples;Min_cycle;Max_cycle;Signal;HPM_P1;HPM_P2
2023/09/14 00:00:20;;;;;;;1.02;0.90;;;;;;;;;;6235210;28;20320;-69
2023/09/14 00:03:24;;;;;;;1.08;1.08;;;;;;;;;;6235154;28;20331;-69
2023/09/14 00:06:28;;;;;;;1.05;1.02;;;;;;;;;;6235256;28;20581;-68
2023/09/14 00:09:33;;;;;;;5.38;1.00;;;;;;;;;;6234890;28;20304;-68
2023/09/14 00:12:37;;;;;;;0.95;0.95;;;;;;;;;;6249668;28;20296;-71
2023/09/14 00:15:41;;;;;;;2.90;1.10;;;;;;;;;;6235393;28;20351;-68
2023/09/14 00:18:45;;;;;;;0.80;0.80;;;;;;;;;;6234597;28;20324;-69
2023/09/14 00:21:49;;;;;;;1.60;0.98;;;;;;;;;;6250343;28;20304;-69
2023/09/14 00:24:54;;;;;;;1.85;0.82;;;;;;;;;;6234595;28;20300;-69
2023/09/14 00:27:58;;;;;;;0.80;0.80;;;;;;;;;;6234684;28;20284;-69
2023/09/14 00:31:02;;;;;;;0.93;0.80;;;;;;;;;;6234961;28;20300;-69
2023/09/14 00:34:06;;;;;;;0.90;0.90;;;;;;;;;;6249290;28;20312;-70
2023/09/14 00:37:10;;;;;;;0.90;0.90;;;;;;;;;;6234995;28;20304;-72
2023/09/14 00:40:16;;;;;;;0.80;0.80;;;;;;;;;;6232535;28;20311;-72
2023/09/14 00:43:20;;;;;;;5.70;1.63;;;;;;;;;;6249279;28;20292;-70
2023/09/14 00:46:24;;;;;;;0.90;0.90;;;;;;;;;;6233445;28;20299;-69
2023/09/14 00:49:30;;;;;;;2.65;1.02;;;;;;;;;;6233920;28;20557;-68
2023/09/14 00:52:35;;;;;;;1.00;1.00;;;;;;;;;;6234417;28;20460;-69
2023/09/14 00:55:42;;;;;;;0.80;0.80;;;;;;;;;;6233966;28;20308;-71
2023/09/14 00:58:47;;;;;;;0.80;0.80;;;;;;;;;;6233907;28;20316;-69
2023/09/14 01:01:51;;;;;;;0.88;0.70;;;;;;;;;;6249727;28;20296;-69
2023/09/14 01:04:56;;;;;;;1.00;0.90;;;;;;;;;;6233005;28;20296;-70
2023/09/14 01:07:59;;;;;;;0.68;0.68;;;;;;;;;;6249106;28;20303;-69
2023/09/14 01:11:05;;;;;;;2.38;0.70;;;;;;;;;;6248481;28;20316;-69
2023/09/14 01:14:15;;;;;;;1.08;0.65;;;;;;;;;;6233843;28;20565;-71
2023/09/14 01:17:25;;;;;;;0.77;0.77;;;;;;;;;;6232197;28;20292;-69
2023/09/14 01:20:43;;;;;;;0.80;0.80;;;;;;;;;;6233568;28;20324;-69
2023/09/14 01:23:52;;;;;;;1.35;0.73;;;;;;;;;;6233524;28;20300;-69
2023/09/14 01:26:57;;;;;;;1.85;0.80;;;;;;;;;;6232615;28;20312;-69
2023/09/14 01:30:03;;;;;;;0.95;0.60;;;;;;;;;;6243218;28;20613;-69
2023/09/14 01:33:08;;;;;;;0.90;0.50;;;;;;;;;;6231111;28;20296;-70
2023/09/14 01:36:16;;;;;;;0.63;0.60;;;;;;;;;;6248814;28;20280;-69
2023/09/14 01:39:22;;;;;;;0.80;0.80;;;;;;;;;;6246190;28;20304;-70
2023/09/14 01:42:27;;;;;;;1.40;0.70;;;;;;;;;;6248731;28;20304;-69
2023/09/14 01:45:32;;;;;;;3.00;0.80;;;;;;;;;;6232767;28;20292;-69
2023/09/14 01:48:36;;;;;;;0.75;0.75;;;;;;;;;;6231486;28;20300;-70
2023/09/14 01:51:39;;;;;;;0.75;0.70;;;;;;;;;;6247813;28;20296;-69
2023/09/14 01:54:44;;;;;;;0.90;0.90;;;;;;;;;;6231578;28;20315;-68
2023/09/14 01:57:49;;;;;;;3.40;0.90;;;;;;;;;;6231541;28;20311;-68
2023/09/14 02:00:53;;;;;;;0.77;0.77;;;;;;;;;;6231271;28;20316;-68
2023/09/14 02:03:56;;;;;;;2.60;0.85;;;;;;;;;;6247715;28;20311;-69
2023/09/14 02:07:02;;;;;;;0.70;0.70;;;;;;;;;;6231179;28;20312;-70
2023/09/14 02:10:13;;;;;;;1.13;0.80;;;;;;;;;;6247077;28;20324;-68
2023/09/14 02:13:18;;;;;;;0.70;0.70;;;;;;;;;;6232301;28;20430;-70
2023/09/14 02:16:22;;;;;;;0.80;0.80;;;;;;;;;;6247686;28;20465;-69
2023/09/14 02:19:26;;;;;;;0.73;0.70;;;;;;;;;;6232518;28;20300;-68
2023/09/14 02:22:30;;;;;;;1.38;0.70;;;;;;;;;;6247259;28;20308;-69
2023/09/14 02:25:33;;;;;;;0.70;0.70;;;;;;;;;;6247322;28;20604;-71
2023/09/14 02:28:38;;;;;;;1.65;0.80;;;;;;;;;;6247772;28;20301;-68
2023/09/14 02:31:42;;;;;;;1.92;0.82;;;;;;;;;;6233079;28;20478;-69
2023/09/14 02:34:46;;;;;;;0.90;0.90;;;;;;;;;;6231888;28;20315;-70
2023/09/14 02:37:50;;;;;;;1.13;0.90;;;;;;;;;;6247501;28;20316;-71
2023/09/14 02:40:54;;;;;;;1.15;0.95;;;;;;;;;;6245586;28;20411;-69
2023/09/14 02:43:59;;;;;;;0.80;0.80;;;;;;;;;;6238475;28;20305;-68
2023/09/14 02:47:03;;;;;;;0.55;0.55;;;;;;;;;;6206426;28;20312;-69
2023/09/14 02:50:07;;;;;;;0.85;0.85;;;;;;;;;;6207820;28;20329;-70
2023/09/14 02:53:11;;;;;;;1.38;0.90;;;;;;;;;;6207692;28;20312;-69
2023/09/14 02:56:15;;;;;;;0.90;0.90;;;;;;;;;;6239194;28;20322;-72
2023/09/14 02:59:20;;;;;;;1.00;1.00;;;;;;;;;;6238789;28;20300;-69
2023/09/14 03:02:24;;;;;;;0.70;0.70;;;;;;;;;;6227273;28;20288;-70
2023/09/14 03:05:28;;;;;;;0.80;0.80;;;;;;;;;;6233030;28;20308;-68
2023/09/14 03:08:32;;;;;;;0.82;0.82;;;;;;;;;;6251386;28;20305;-70
2023/09/14 03:11:36;;;;;;;1.08;1.08;;;;;;;;;;6235226;28;20312;-69
2023/09/14 03:14:43;;;;;;;0.70;0.70;;;;;;;;;;6251624;28;20498;-68
2023/09/14 03:17:46;;;;;;;0.80;0.80;;;;;;;;;;6234122;28;20318;-69
2023/09/14 03:20:52;;;;;;;1.83;1.00;;;;;;;;;;6243722;28;20600;-69
2023/09/14 03:23:57;;;;;;;3.85;0.70;;;;;;;;;;6209998;28;20304;-71
2023/09/14 03:27:01;;;;;;;1.20;0.80;;;;;;;;;;6225750;28;20346;-69
2023/09/14 03:30:08;;;;;;;0.70;0.70;;;;;;;;;;6226206;28;20543;-69
2023/09/14 03:33:12;;;;;;;1.75;0.80;;;;;;;;;;6210910;28;20293;-69
2023/09/14 03:36:17;;;;;;;1.08;0.73;;;;;;;;;;6219511;28;20268;-68
2023/09/14 03:39:21;;;;;;;0.65;0.65;;;;;;;;;;6249205;28;20467;-68
2023/09/14 03:42:25;;;;;;;4.25;0.80;;;;;;;;;;6251134;28;20304;-69
2023/09/14 03:45:30;;;;;;;1.70;0.70;;;;;;;;;;6235625;28;20296;-69
2023/09/14 03:48:34;;;;;;;0.95;0.85;;;;;;;;;;6250628;28;20296;-68
2023/09/14 03:51:37;;;;;;;1.55;0.70;;;;;;;;;;6251225;28;20291;-70
2023/09/14 03:54:41;;;;;;;0.70;0.70;;;;;;;;;;6236901;28;20300;-69
2023/09/14 03:57:47;;;;;;;0.82;0.80;;;;;;;;;;6235426;28;20305;-69
2023/09/14 04:00:54;;;;;;;0.60;0.60;;;;;;;;;;6233881;28;20307;-70
2023/09/14 04:03:59;;;;;;;0.75;0.75;;;;;;;;;;6250211;28;20300;-70
2023/09/14 04:07:03;;;;;;;0.70;0.70;;;;;;;;;;6250820;28;20309;-70
2023/09/14 04:10:10;;;;;;;1.65;0.77;;;;;;;;;;6234892;28;20304;-70
2023/09/14 04:13:30;;;;;;;1.15;0.60;;;;;;;;;;6249154;28;20301;-70
2023/09/14 04:16:43;;;;;;;2.00;0.60;;;;;;;;;;6250361;28;20304;-70
2023/09/14 04:19:48;;;;;;;1.30;0.70;;;;;;;;;;6250180;28;20493;-69
2023/09/14 04:22:52;;;;;;;0.70;0.70;;;;;;;;;;6249595;28;20307;-70
2023/09/14 04:25:55;;;;;;;0.80;0.80;;;;;;;;;;6250123;28;20312;-71
2023/09/14 04:29:00;;;;;;;0.60;0.60;;;;;;;;;;6233108;28;20292;-70
2023/09/14 04:32:06;;;;;;;0.80;0.80;;;;;;;;;;6249709;28;20295;-69
2023/09/14 04:35:10;;;;;;;0.80;0.80;;;;;;;;;;6232779;28;20477;-69
2023/09/14 04:38:14;;;;;;;0.80;0.80;;;;;;;;;;6249186;28;20312;-71
2023/09/14 04:41:19;;;;;;;1.42;0.90;;;;;;;;;;6248243;28;20300;-69
2023/09/14 04:44:23;;;;;;;2.47;0.73;;;;;;;;;;6234205;28;20303;-70
2023/09/14 04:47:28;;;;;;;1.00;1.00;;;;;;;;;;6249687;28;20300;-71
2023/09/14 04:50:32;;;;;;;0.77;0.77;;;;;;;;;;6232239;28;20312;-70
2023/09/14 04:53:36;;;;;;;1.98;0.70;;;;;;;;;;6232288;28;20292;-70
2023/09/14 04:56:40;;;;;;;0.60;0.60;;;;;;;;;;6232468;28;20416;-71
2023/09/14 04:59:44;;;;;;;0.80;0.80;;;;;;;;;;6248982;28;20308;-70
2023/09/14 05:02:49;;;;;;;2.28;1.17;;;;;;;;;;6232079;28;20311;-71
2023/09/14 05:05:54;;;;;;;0.70;0.70;;;;;;;;;;6233224;28;20296;-70
2023/09/14 05:08:58;;;;;;;0.98;0.98;;;;;;;;;;6232245;28;20308;-70
2023/09/14 05:12:02;;;;;;;1.05;0.80;;;;;;;;;;6232986;28;20281;-70
2023/09/14 05:15:07;;;;;;;4.50;1.00;;;;;;;;;;6233592;28;20300;-70
2023/09/14 05:18:12;;;;;;;0.75;0.75;;;;;;;;;;6233811;28;20292;-69
2023/09/14 05:21:16;;;;;;;0.70;0.70;;;;;;;;;;6250053;28;20481;-69
2023/09/14 05:24:20;;;;;;;0.77;0.77;;;;;;;;;;6247651;28;20304;-69
2023/09/14 05:27:24;;;;;;;1.65;0.85;;;;;;;;;;6248776;28;20517;-69
2023/09/14 05:30:28;;;;;;;0.90;0.90;;;;;;;;;;6232890;28;20304;-69
2023/09/14 05:33:33;;;;;;;3.60;1.20;;;;;;;;;;6247890;28;20319;-71
2023/09/14 05:36:37;;;;;;;4.68;1.15;;;;;;;;;;6248432;28;20304;-69
2023/09/14 05:39:41;;;;;;;0.95;0.95;;;;;;;;;;6246057;28;20307;-69
2023/09/14 05:42:46;;;;;;;0.70;0.70;;;;;;;;;;6247478;28;20341;-68
2023/09/14 05:45:50;;;;;;;2.95;0.90;;;;;;;;;;6240253;28;20593;-69
2023/09/14 05:48:57;;;;;;;2.75;0.95;;;;;;;;;;6239613;28;20550;-69
2023/09/14 05:52:01;;;;;;;0.82;0.82;;;;;;;;;;6208766;28;20301;-69
2023/09/14 05:55:05;;;;;;;0.85;0.85;;;;;;;;;;6239364;28;20312;-69
2023/09/14 05:58:11;;;;;;;1.92;1.05;;;;;;;;;;6206310;28;20551;-69
2023/09/14 06:01:15;;;;;;;2.83;0.85;;;;;;;;;;6208592;28;20581;-71
2023/09/14 06:04:20;;;;;;;1.35;0.93;;;;;;;;;;6206382;28;20297;-70
2023/09/14 06:07:25;;;;;;;2.15;1.00;;;;;;;;;;6222971;28;20481;-69
2023/09/14 06:10:29;;;;;;;0.90;0.90;;;;;;;;;;6246975;28;20296;-70
2023/09/14 06:13:33;;;;;;;1.48;0.90;;;;;;;;;;6232128;28;20304;-70
2023/09/14 06:16:37;;;;;;;6.30;1.10;;;;;;;;;;6232605;28;20296;-69
2023/09/14 06:19:42;;;;;;;1.08;0.80;;;;;;;;;;6232195;28;20324;-69
2023/09/14 06:22:46;;;;;;;4.40;0.93;;;;;;;;;;6231807;28;20350;-70
2023/09/14 06:25:51;;;;;;;1.55;0.90;;;;;;;;;;6247811;28;20304;-70
2023/09/14 06:28:55;;;;;;;3.25;1.00;;;;;;;;;;6232001;28;20243;-69
2023/09/14 06:32:03;;;;;;;1.88;0.88;;;;;;;;;;6232478;28;20305;-69
2023/09/14 06:35:09;;;;;;;1.48;1.00;;;;;;;;;;6231361;28;20339;-69
2023/09/14 06:38:13;;;;;;;4.95;1.00;;;;;;;;;;6236182;28;20284;-69
2023/09/14 06:41:17;;;;;;;4.28;1.00;;;;;;;;;;6235729;28;20316;-69
2023/09/14 06:44:21;;;;;;;4.85;1.10;;;;;;;;;;6244385;28;20324;-70
2023/09/14 06:47:25;;;;;;;0.82;0.82;;;;;;;;;;6213255;28;20304;-70
2023/09/14 06:50:30;;;;;;;1.10;0.90;;;;;;;;;;6212467;28;20601;-70
2023/09/14 06:53:34;;;;;;;0.80;0.80;;;;;;;;;;6227173;28;20304;-69
2023/09/14 06:56:37;;;;;;;1.08;1.08;;;;;;;;;;6212943;28;20477;-71
2023/09/14 06:59:41;;;;;;;1.15;1.02;;;;;;;;;;6212252;28;20292;-69
2023/09/14 07:02:45;;;;;;;1.33;1.15;;;;;;;;;;6212035;28;20468;-69
2023/09/14 07:05:51;;;;;;;3.65;0.82;;;;;;;;;;6212941;28;20309;-69
2023/09/14 07:08:55;;;;;;;2.28;0.82;;;;;;;;;;6211799;28;20313;-69
2023/09/14 07:11:58;;;;;;;1.00;1.00;;;;;;;;;;6232708;28;20339;-69
2023/09/14 07:15:03;;;;;;;1.88;1.00;;;;;;;;;;6235624;28;20308;-70
2023/09/14 07:18:07;;;;;;;1.17;1.17;;;;;;;;;;6236354;28;20296;-71
2023/09/14 07:21:12;;;;;;;1.00;1.00;;;;;;;;;;6236478;28;20281;-71
2023/09/14 07:24:15;;;;;;;3.50;0.88;;;;;;;;;;6235807;28;20308;-72
2023/09/14 07:27:21;;;;;;;1.33;1.20;;;;;;;;;;6236311;28;20248;-69
2023/09/14 07:30:25;;;;;;;1.20;1.10;;;;;;;;;;6235786;28;20297;-68
2023/09/14 07:33:29;;;;;;;1.05;1.00;;;;;;;;;;6250686;28;20488;-68
2023/09/14 07:36:34;;;;;;;5.40;1.20;;;;;;;;;;6236472;28;20568;-70
2023/09/14 07:39:38;;;;;;;8.13;1.05;;;;;;;;;;6234287;28;20300;-70
2023/09/14 07:42:42;;;;;;;2.63;1.13;;;;;;;;;;6235378;28;20493;-69
2023/09/14 07:45:46;;;;;;;1.60;1.00;;;;;;;;;;6243319;28;20308;-70
2023/09/14 07:48:51;;;;;;;1.10;1.10;;;;;;;;;;6241171;28;20343;-70
2023/09/14 07:51:56;;;;;;;2.67;1.00;;;;;;;;;;6211856;28;20305;-71
2023/09/14 07:55:02;;;;;;;1.23;1.10;;;;;;;;;;6211224;28;20296;-69
2023/09/14 07:58:06;;;;;;;1.17;1.10;;;;;;;;;;6210908;28;20292;-69
2023/09/14 08:01:10;;;;;;;1.30;1.30;;;;;;;;;;6211273;28;20324;-69
2023/09/14 08:04:14;;;;;;;0.90;0.90;;;;;;;;;;6225387;28;20490;-69
2023/09/14 08:07:19;;;;;;;0.93;0.93;;;;;;;;;;6211611;28;20309;-69
2023/09/14 08:10:24;;;;;;;2.85;1.00;;;;;;;;;;6219145;28;20251;-71
2023/09/14 08:13:28;;;;;;;1.25;0.70;;;;;;;;;;6235099;28;20304;-70
2023/09/14 08:16:32;;;;;;;3.90;1.40;;;;;;;;;;6235142;28;20307;-70
2023/09/14 08:19:36;;;;;;;2.20;0.80;;;;;;;;;;6234802;28;20320;-71
2023/09/14 08:22:41;;;;;;;2.75;1.10;;;;;;;;;;6234500;28;20483;-69
2023/09/14 08:25:46;;;;;;;1.35;1.15;;;;;;;;;;6235335;28;20327;-70
2023/09/14 08:28:49;;;;;;;1.90;1.30;;;;;;;;;;6234494;28;20300;-71
2023/09/14 08:31:53;;;;;;;0.90;0.90;;;;;;;;;;6249934;28;20300;-69
2023/09/14 08:34:59;;;;;;;0.82;0.80;;;;;;;;;;6234066;28;20320;-70
2023/09/14 08:38:05;;;;;;;0.90;0.90;;;;;;;;;;6234370;28;20612;-70
2023/09/14 08:41:14;;;;;;;2.15;1.02;;;;;;;;;;6233169;28;20308;-70
2023/09/14 08:44:19;;;;;;;0.82;0.82;;;;;;;;;;6234143;28;20300;-68
2023/09/14 08:47:24;;;;;;;1.67;1.00;;;;;;;;;;6234982;28;20316;-69
2023/09/14 08:50:30;;;;;;;1.38;1.02;;;;;;;;;;6234461;28;20308;-70
2023/09/14 08:53:36;;;;;;;1.30;1.02;;;;;;;;;;6234068;28;20300;-69
2023/09/14 08:56:40;;;;;;;1.10;1.08;;;;;;;;;;6234345;28;20315;-70
2023/09/14 08:59:43;;;;;;;1.08;1.00;;;;;;;;;;6233701;28;20296;-69
2023/09/14 09:02:49;;;;;;;0.98;0.98;;;;;;;;;;6233697;28;20304;-70
2023/09/14 09:05:53;;;;;;;1.60;1.13;;;;;;;;;;6234587;28;20308;-70
2023/09/14 09:09:00;;;;;;;0.80;0.80;;;;;;;;;;6233981;28;20312;-71
2023/09/14 09:12:04;;;;;;;2.70;1.00;;;;;;;;;;6232789;28;20280;-70
2023/09/14 09:15:09;;;;;;;1.00;0.90;;;;;;;;;;6233619;28;20613;-70
2023/09/14 09:18:13;;;;;;;4.38;1.08;;;;;;;;;;6233304;28;20308;-69
2023/09/14 09:21:26;;;;;;;0.98;0.98;;;;;;;;;;6248583;28;20276;-70
2023/09/14 09:24:31;;;;;;;0.82;0.80;;;;;;;;;;6232205;28;20296;-69
2023/09/14 09:27:35;;;;;;;2.28;1.20;;;;;;;;;;6233147;28;20315;-71
2023/09/14 09:30:39;;;;;;;1.30;1.20;;;;;;;;;;6234491;28;20304;-69
2023/09/14 09:33:47;;;;;;;2.67;0.90;;;;;;;;;;6232902;28;20287;-70
2023/09/14 09:36:55;;;;;;;1.00;1.00;;;;;;;;;;6234808;28;20340;-69
2023/09/14 09:40:00;;;;;;;0.90;0.80;;;;;;;;;;6231287;28;20556;-69
2023/09/14 09:43:07;;;;;;;0.90;0.90;;;;;;;;;;6232959;28;20357;-71
2023/09/14 09:46:17;;;;;;;4.88;1.10;;;;;;;;;;6233245;28;20301;-69
2023/09/14 09:49:22;;;;;;;1.20;1.10;;;;;;;;;;6232702;28;20324;-69
2023/09/14 09:52:27;;;;;;;2.70;1.42;;;;;;;;;;6248444;28;20304;-71
2023/09/14 09:55:33;;;;;;;2.40;1.38;;;;;;;;;;6247571;28;20293;-70
2023/09/14 09:58:37;;;;;;;1.52;1.10;;;;;;;;;;6232519;28;20304;-71
2023/09/14 10:01:42;;;;;;;2.15;1.20;;;;;;;;;;6233142;28;20304;-70
2023/09/14 10:04:52;;;;;;;0.98;0.98;;;;;;;;;;6232338;28;20515;-69
2023/09/14 10:07:58;;;;;;;5.43;1.30;;;;;;;;;;6232253;28;20292;-71
2023/09/14 10:11:04;;;;;;;1.85;1.10;;;;;;;;;;6232195;28;20300;-68
2023/09/14 10:14:13;;;;;;;4.47;1.35;;;;;;;;;;6232241;28;20307;-69
2023/09/14 10:17:22;;;;;;;1.40;1.10;;;;;;;;;;6233049;28;20601;-71
2023/09/14 10:20:26;;;;;;;0.90;0.90;;;;;;;;;;6231950;28;20364;-70
2023/09/14 10:23:31;;;;;;;0.90;0.90;;;;;;;;;;6232018;28;20368;-69
2023/09/14 10:26:37;;;;;;;0.88;0.88;;;;;;;;;;6232500;28;20589;-69
2023/09/14 10:29:43;;;;;;;3.47;1.27;;;;;;;;;;6232550;28;20236;-71
2023/09/14 10:32:49;;;;;;;2.90;1.17;;;;;;;;;;6232374;28;20307;-69
2023/09/14 10:35:54;;;;;;;1.45;0.90;;;;;;;;;;6232477;28;20304;-70
2023/09/14 10:39:00;;;;;;;0.82;0.82;;;;;;;;;;6230791;28;20311;-71
2023/09/14 10:42:05;;;;;;;4.65;1.17;;;;;;;;;;6246623;28;20284;-70
2023/09/14 10:45:10;;;;;;;0.80;0.80;;;;;;;;;;6232238;28;20308;-73
2023/09/14 10:48:17;;;;;;;1.75;0.80;;;;;;;;;;6231945;28;20296;-69
2023/09/14 10:51:22;;;;;;;1.77;0.90;;;;;;;;;;6232603;28;20296;-71
2023/09/14 10:54:26;;;;;;;0.80;0.80;;;;;;;;;;6231983;28;20311;-71
2023/09/14 10:57:31;;;;;;;1.60;1.00;;;;;;;;;;6232039;28;20300;-71
2023/09/14 11:00:36;;;;;;;4.00;1.10;;;;;;;;;;6231824;28;20292;-70
2023/09/14 11:04:13;;;;;;;0.90;0.90;;;;;;;;;;6232759;28;20300;-71
2023/09/14 11:07:37;;;;;;;1.10;1.10;;;;;;;;;;6231760;28;20297;-69
2023/09/14 11:10:54;;;;;;;0.80;0.80;;;;;;;;;;6231245;28;20296;-70
2023/09/14 11:14:00;;;;;;;0.73;0.73;;;;;;;;;;6231305;28;20403;-71
2023/09/14 11:17:05;;;;;;;1.05;0.80;;;;;;;;;;6232294;28;20573;-69
2023/09/14 11:20:40;;;;;;;0.85;0.85;;;;;;;;;;6231326;28;20304;-70
2023/09/14 11:23:46;;;;;;;0.95;0.90;;;;;;;;;;6235199;28;20304;-69
2023/09/14 11:26:51;;;;;;;0.88;0.88;;;;;;;;;;6236228;28;20300;-69
2023/09/14 11:29:58;;;;;;;0.82;0.82;;;;;;;;;;6236105;28;20609;-70
2023/09/14 11:33:04;;;;;;;1.48;0.70;;;;;;;;;;6235020;28;20303;-69
2023/09/14 11:36:09;;;;;;;1.05;0.95;;;;;;;;;;6236419;28;20241;-69
2023/09/14 11:39:16;;;;;;;2.22;1.00;;;;;;;;;;6234333;28;20327;-70
2023/09/14 11:42:23;;;;;;;0.88;0.80;;;;;;;;;;6236512;28;20368;-70
2023/09/14 11:45:34;;;;;;;0.60;0.60;;;;;;;;;;6235597;28;20305;-71
2023/09/14 11:48:43;;;;;;;0.90;0.90;;;;;;;;;;6235357;28;20288;-69
2023/09/14 11:51:52;;;;;;;0.63;0.63;;;;;;;;;;6235888;28;20308;-69
2023/09/14 11:54:56;;;;;;;0.70;0.68;;;;;;;;;;6250669;28;20328;-69
2023/09/14 11:58:01;;;;;;;0.70;0.70;;;;;;;;;;6235139;28;20562;-69
2023/09/14 12:01:06;;;;;;;2.38;0.80;;;;;;;;;;6235875;28;20388;-70
2023/09/14 12:04:10;;;;;;;2.60;1.05;;;;;;;;;;6235229;28;20293;-69
2023/09/14 12:07:14;;;;;;;3.45;1.00;;;;;;;;;;6236007;28;20332;-69
2023/09/14 12:10:19;;;;;;;2.10;0.95;;;;;;;;;;6235004;28;20296;-69
2023/09/14 12:13:22;;;;;;;1.65;1.00;;;;;;;;;;6234278;28;20303;-69
2023/09/14 12:16:28;;;;;;;0.80;0.80;;;;;;;;;;6234310;28;20588;-70
2023/09/14 12:19:32;;;;;;;0.95;0.95;;;;;;;;;;6234731;28;20494;-70
2023/09/14 12:22:36;;;;;;;0.82;0.82;;;;;;;;;;6249977;28;20300;-71
2023/09/14 12:25:40;;;;;;;2.65;0.77;;;;;;;;;;6235383;28;20300;-70
2023/09/14 12:28:47;;;;;;;1.95;1.38;;;;;;;;;;6235670;28;20300;-69
2023/09/14 12:31:52;;;;;;;1.00;1.00;;;;;;;;;;6234928;28;20304;-70
2023/09/14 12:34:57;;;;;;;1.00;0.85;;;;;;;;;;6233922;28;20472;-71
2023/09/14 12:38:02;;;;;;;2.70;0.80;;;;;;;;;;6234597;28;20308;-70
2023/09/14 12:41:06;;;;;;;4.43;1.00;;;;;;;;;;6248168;28;20300;-68
2023/09/14 12:44:10;;;;;;;2.25;1.00;;;;;;;;;;6234385;28;20308;-69
2023/09/14 12:47:16;;;;;;;2.58;0.77;;;;;;;;;;6234791;28;20485;-70
2023/09/14 12:50:20;;;;;;;2.83;0.82;;;;;;;;;;6234302;28;20311;-71
2023/09/14 12:53:25;;;;;;;0.93;0.90;;;;;;;;;;6234106;28;20335;-71
2023/09/14 12:56:30;;;;;;;2.15;0.95;;;;;;;;;;6234638;28;20387;-71
2023/09/14 12:59:34;;;;;;;0.98;0.90;;;;;;;;;;6233875;28;20308;-71
2023/09/14 13:02:41;;;;;;;0.95;0.95;;;;;;;;;;6234013;28;20565;-71
2023/09/14 13:05:46;;;;;;;1.00;1.00;;;;;;;;;;6234669;28;20304;-71
2023/09/14 13:08:53;;;;;;;0.93;0.93;;;;;;;;;;6233556;28;20295;-71
2023/09/14 13:11:57;;;;;;;0.90;0.90;;;;;;;;;;6233878;28;20304;-69
2023/09/14 13:15:04;;;;;;;0.60;0.60;;;;;;;;;;6232964;28;20300;-71
2023/09/14 13:18:10;;;;;;;0.90;0.90;;;;;;;;;;6233298;28;20296;-70
2023/09/14 13:21:14;;;;;;;3.80;1.00;;;;;;;;;;6233810;28;20398;-70
2023/09/14 13:24:18;;;;;;;0.80;0.80;;;;;;;;;;6233234;28;20311;-70
2023/09/14 13:27:22;;;;;;;1.00;1.00;;;;;;;;;;6233981;28;20304;-70
2023/09/14 13:30:26;;;;;;;5.10;0.93;;;;;;;;;;6233324;28;20296;-70
2023/09/14 13:33:32;;;;;;;0.60;0.60;;;;;;;;;;6232943;28;20524;-69
2023/09/14 13:36:36;;;;;;;0.90;0.90;;;;;;;;;;6233569;28;20300;-70
2023/09/14 13:39:40;;;;;;;1.10;1.10;;;;;;;;;;6231385;28;20496;-71
2023/09/14 13:42:45;;;;;;;0.85;0.85;;;;;;;;;;6232780;28;20300;-70
2023/09/14 13:45:49;;;;;;;3.17;0.98;;;;;;;;;;6232000;28;20308;-69
2023/09/14 13:48:57;;;;;;;0.90;0.90;;;;;;;;;;6233042;28;20308;-70
2023/09/14 13:52:01;;;;;;;2.88;0.90;;;;;;;;;;6234046;28;20332;-69
2023/09/14 13:55:07;;;;;;;0.70;0.70;;;;;;;;;;6232899;28;20307;-69
2023/09/14 13:58:10;;;;;;;1.27;1.15;;;;;;;;;;6232595;28;20307;-69
2023/09/14 14:01:14;;;;;;;1.65;0.90;;;;;;;;;;6233111;28;20312;-68
2023/09/14 14:04:19;;;;;;;4.13;0.90;;;;;;;;;;6232557;28;20308;-68
2023/09/14 14:07:24;;;;;;;0.77;0.77;;;;;;;;;;6233076;28;20311;-68
2023/09/14 14:10:27;;;;;;;1.48;0.80;;;;;;;;;;6231706;28;20315;-69
2023/09/14 14:13:31;;;;;;;1.00;1.00;;;;;;;;;;6232171;28;20351;-69
2023/09/14 14:16:35;;;;;;;1.45;0.90;;;;;;;;;;6233153;28;20484;-69
2023/09/14 14:19:40;;;;;;;2.05;0.80;;;;;;;;;;6232264;28;20617;-69
2023/09/14 14:22:44;;;;;;;1.10;0.80;;;;;;;;;;6232532;28;20307;-71
2023/09/14 14:25:48;;;;;;;2.05;0.90;;;;;;;;;;6232767;28;20320;-71
2023/09/14 14:28:52;;;;;;;0.77;0.77;;;;;;;;;;6232271;28;20328;-71
2023/09/14 14:31:57;;;;;;;2.15;1.00;;;;;;;;;;6233059;28;20332;-71
2023/09/14 14:35:03;;;;;;;0.80;0.80;;;;;;;;;;6231718;28;20300;-72
2023/09/14 14:38:07;;;;;;;1.30;0.90;;;;;;;;;;6232080;28;20308;-69
2023/09/14 14:41:11;;;;;;;0.70;0.70;;;;;;;;;;6229811;28;20343;-69
2023/09/14 14:44:18;;;;;;;0.90;0.90;;;;;;;;;;6232143;28;20296;-69
2023/09/14 14:47:22;;;;;;;0.95;0.95;;;;;;;;;;6232560;28;20505;-71
2023/09/14 14:50:27;;;;;;;2.00;1.10;;;;;;;;;;6232074;28;20304;-70
2023/09/14 14:53:31;;;;;;;3.50;1.23;;;;;;;;;;6231576;28;20304;-70
2023/09/14 14:56:35;;;;;;;4.75;1.20;;;;;;;;;;6232747;28;20315;-70
2023/09/14 14:59:38;;;;;;;1.15;1.00;;;;;;;;;;6236475;28;20308;-71
2023/09/14 15:02:42;;;;;;;1.95;0.95;;;;;;;;;;6236553;28;20304;-68
2023/09/14 15:05:47;;;;;;;1.50;1.40;;;;;;;;;;6236967;28;20375;-68
2023/09/14 15:08:54;;;;;;;0.85;0.85;;;;;;;;;;6236202;28;20305;-69
2023/09/14 15:11:57;;;;;;;1.17;1.17;;;;;;;;;;6236262;28;20399;-71
2023/09/14 15:15:02;;;;;;;1.55;1.48;;;;;;;;;;6235590;28;20613;-70
2023/09/14 15:18:07;;;;;;;2.58;1.08;;;;;;;;;;6236994;28;20600;-69
2023/09/14 15:21:13;;;;;;;3.15;1.10;;;;;;;;;;6236415;28;20487;-70
2023/09/14 15:24:17;;;;;;;2.55;1.02;;;;;;;;;;6236391;28;20308;-69
2023/09/14 15:27:20;;;;;;;1.25;1.15;;;;;;;;;;6236429;28;20295;-71
2023/09/14 15:30:24;;;;;;;2.70;1.42;;;;;;;;;;6235685;28;20301;-69
2023/09/14 15:33:28;;;;;;;2.78;2.20;;;;;;;;;;6235636;28;20487;-70
2023/09/14 15:36:33;;;;;;;1.90;1.80;;;;;;;;;;6236062;28;20300;-69
2023/09/14 15:39:38;;;;;;;2.40;1.40;;;;;;;;;;6234197;28;20296;-69
2023/09/14 15:42:43;;;;;;;1.02;1.02;;;;;;;;;;6235678;28;20296;-70
2023/09/14 15:45:47;;;;;;;1.30;1.30;;;;;;;;;;6236028;28;20586;-69
2023/09/14 15:48:52;;;;;;;1.30;0.80;;;;;;;;;;6235184;28;20300;-68
2023/09/14 15:51:57;;;;;;;2.78;1.10;;;;;;;;;;6251114;28;20292;-67
2023/09/14 15:55:02;;;;;;;1.27;1.15;;;;;;;;;;6235082;28;20347;-67
2023/09/14 15:58:13;;;;;;;6.20;1.35;;;;;;;;;;6235034;28;20304;-67
2023/09/14 16:01:17;;;;;;;3.42;1.20;;;;;;;;;;6235989;28;20304;-68
2023/09/14 16:04:23;;;;;;;2.00;1.08;;;;;;;;;;6235221;28;20376;-73
2023/09/14 16:07:28;;;;;;;1.30;1.30;;;;;;;;;;6235656;28;20300;-69
2023/09/14 16:10:32;;;;;;;1.13;1.13;;;;;;;;;;6233723;28;20765;-68
2023/09/14 16:13:36;;;;;;;1.30;0.98;;;;;;;;;;6234803;28;20312;-69
2023/09/14 16:16:43;;;;;;;0.85;0.85;;;;;;;;;;6234896;28;20304;-67
2023/09/14 16:19:47;;;;;;;1.75;1.27;;;;;;;;;;6235032;28;20565;-68
2023/09/14 16:22:52;;;;;;;1.75;0.88;;;;;;;;;;6234422;28;20324;-68
2023/09/14 16:25:56;;;;;;;0.88;0.88;;;;;;;;;;6235368;28;20589;-69
2023/09/14 16:28:59;;;;;;;1.23;1.13;;;;;;;;;;6234421;28;20317;-69
2023/09/14 16:32:04;;;;;;;3.83;0.90;;;;;;;;;;6235305;28;20589;-70
2023/09/14 16:35:08;;;;;;;2.78;1.20;;;;;;;;;;6248900;28;20304;-70
2023/09/14 16:38:14;;;;;;;2.05;1.15;;;;;;;;;;6234406;28;20300;-69
2023/09/14 16:41:17;;;;;;;1.77;1.27;;;;;;;;;;6233409;28;20304;-70
2023/09/14 16:44:21;;;;;;;1.88;1.33;;;;;;;;;;6235156;28;20612;-70
2023/09/14 16:47:25;;;;;;;1.10;1.00;;;;;;;;;;6249738;28;20296;-70
2023/09/14 16:50:31;;;;;;;2.40;0.80;;;;;;;;;;6233881;28;20305;-70
2023/09/14 16:53:36;;;;;;;2.72;1.10;;;;;;;;;;6233419;28;20600;-70
2023/09/14 16:56:40;;;;;;;6.63;1.25;;;;;;;;;;6234416;28;20308;-71
2023/09/14 16:59:44;;;;;;;8.30;1.60;;;;;;;;;;6233840;28;20324;-70
2023/09/14 17:02:48;;;;;;;6.50;1.42;;;;;;;;;;6233880;28;20299;-70
2023/09/14 17:05:53;;;;;;;5.85;1.23;;;;;;;;;;6234199;28;20308;-69
2023/09/14 17:08:59;;;;;;;4.97;1.73;;;;;;;;;;6233920;28;20300;-69
2023/09/14 17:12:03;;;;;;;7.03;1.40;;;;;;;;;;6233121;28;20276;-69
2023/09/14 17:15:08;;;;;;;9.43;1.17;;;;;;;;;;6233232;28;20308;-70
2023/09/14 17:18:13;;;;;;;6.75;1.60;;;;;;;;;;6231265;28;20300;-69
2023/09/14 17:21:17;;;;;;;15.85;1.83;;;;;;;;;;6249158;28;20276;-75
2023/09/14 17:24:22;;;;;;;2.63;1.40;;;;;;;;;;6233751;28;20335;-70
2023/09/14 17:27:26;;;;;;;7.07;2.13;;;;;;;;;;6233738;28;20316;-70
2023/09/14 17:30:31;;;;;;;17.10;1.95;;;;;;;;;;6233066;28;20307;-71
2023/09/14 17:33:35;;;;;;;8.88;1.60;;;;;;;;;;6233285;28;20313;-70
2023/09/14 17:36:38;;;;;;;8.90;1.60;;;;;;;;;;6233859;28;20300;-70
2023/09/14 17:39:44;;;;;;;8.85;1.38;;;;;;;;;;6229503;28;20479;-71
2023/09/14 17:42:48;;;;;;;15.85;2.00;;;;;;;;;;6232694;28;20312;-69
2023/09/14 17:45:52;;;;;;;14.27;2.00;;;;;;;;;;6209362;28;20292;-70
2023/09/14 17:48:56;;;;;;;14.82;2.00;;;;;;;;;;6208511;28;20304;-70
2023/09/14 17:52:00;;;;;;;6.75;1.60;;;;;;;;;;6209348;28;20297;-70
2023/09/14 17:55:06;;;;;;;4.38;1.88;;;;;;;;;;6208414;28;20308;-71
2023/09/14 17:58:10;;;;;;;4.10;2.10;;;;;;;;;;6223145;28;20312;-72
2023/09/14 18:01:15;;;;;;;6.22;1.90;;;;;;;;;;6208743;28;20308;-69
2023/09/14 18:04:19;;;;;;;6.22;1.63;;;;;;;;;;6208239;28;20300;-69
2023/09/14 18:07:23;;;;;;;12.35;1.50;;;;;;;;;;6209656;28;20301;-69
2023/09/14 18:10:28;;;;;;;6.03;1.65;;;;;;;;;;6216858;28;20600;-70
2023/09/14 18:13:32;;;;;;;9.55;1.92;;;;;;;;;;6232758;28;20311;-69
2023/09/14 18:16:37;;;;;;;30.02;2.90;;;;;;;;;;6232823;28;20471;-69
2023/09/14 18:19:41;;;;;;;6.78;3.30;;;;;;;;;;6232538;28;20296;-70
2023/09/14 18:22:45;;;;;;;13.35;2.42;;;;;;;;;;6232756;28;20673;-70
2023/09/14 18:25:53;;;;;;;4.82;1.60;;;;;;;;;;6233175;28;20304;-70
2023/09/14 18:28:58;;;;;;;2.63;2.00;;;;;;;;;;6232226;28;20320;-71